createdAt,value
2022-07-31T00:00:22.450Z,1019.55
2022-07-31T00:00:53.435Z,1019.56
2022-07-31T00:01:24.535Z,1019.52
2022-07-31T00:01:55.023Z,1019.53
2022-07-31T00:02:25.984Z,1019.54
2022-07-31T00:02:56.967Z,1019.53
2022-07-31T00:03:27.610Z,1019.55
2022-07-31T00:03:58.390Z,1019.56
2022-07-31T00:04:29.249Z,1019.56
2022-07-31T00:04:59.728Z,1019.57
2022-07-31T00:05:30.631Z,1019.57
2022-07-31T00:06:01.544Z,1019.57
2022-07-31T00:06:32.533Z,1019.56
2022-07-31T00:07:03.817Z,1019.55
2022-07-31T00:07:34.280Z,1019.54
2022-07-31T00:08:04.769Z,1019.54
2022-07-31T00:08:35.762Z,1019.52
2022-07-31T00:09:06.688Z,1019.53
2022-07-31T00:09:52.943Z,1019.50
2022-07-31T00:10:08.759Z,1019.52
2022-07-31T00:10:39.254Z,1019.51
2022-07-31T00:11:10.227Z,1019.51
2022-07-31T00:11:41.142Z,1019.51
2022-07-31T00:12:12.106Z,1019.48
2022-07-31T00:12:43.070Z,1019.48
2022-07-31T00:13:14.176Z,1019.48
2022-07-31T00:13:56.318Z,1019.48
2022-07-31T00:14:16.651Z,1019.48
2022-07-31T00:14:46.114Z,1019.48
2022-07-31T00:15:17.089Z,1019.48
2022-07-31T00:15:48.249Z,1019.48
2022-07-31T00:16:18.762Z,1019.48
2022-07-31T00:16:49.241Z,1019.46
2022-07-31T00:17:19.739Z,1019.48
2022-07-31T00:17:50.705Z,1019.47
2022-07-31T00:18:21.610Z,1019.47
2022-07-31T00:18:52.793Z,1019.47
2022-07-31T00:19:23.271Z,1019.47
2022-07-31T00:19:54.230Z,1019.48
2022-07-31T00:20:25.138Z,1019.47
2022-07-31T00:20:56.120Z,1019.49
2022-07-31T00:21:27.034Z,1019.49
2022-07-31T00:21:58.189Z,1019.48
2022-07-31T00:22:28.667Z,1019.47
2022-07-31T00:22:59.624Z,1019.46
2022-07-31T00:23:30.528Z,1019.45
2022-07-31T00:24:01.443Z,1019.44
2022-07-31T00:24:32.366Z,1019.45
2022-07-31T00:25:03.467Z,1019.46
2022-07-31T00:25:33.940Z,1019.45
2022-07-31T00:26:04.906Z,1019.45
2022-07-31T00:26:35.898Z,1019.44
2022-07-31T00:27:07.164Z,1019.43
2022-07-31T00:27:37.844Z,1019.42
2022-07-31T00:28:09.046Z,1019.41
2022-07-31T00:28:39.526Z,1019.41
2022-07-31T00:29:10.435Z,1019.41
2022-07-31T00:29:42.409Z,1019.40
2022-07-31T00:30:11.866Z,1019.39
2022-07-31T00:30:42.966Z,1019.41
2022-07-31T00:31:13.445Z,1019.42
2022-07-31T00:31:44.358Z,1019.41
2022-07-31T00:32:15.326Z,1019.41
2022-07-31T00:32:46.239Z,1019.42
2022-07-31T00:33:16.821Z,1019.43
2022-07-31T00:33:48.003Z,1019.44
2022-07-31T00:34:18.485Z,1019.44
2022-07-31T00:34:49.461Z,1019.44
2022-07-31T00:35:20.449Z,1019.44
2022-07-31T00:35:51.353Z,1019.43
2022-07-31T00:36:22.319Z,1019.45
2022-07-31T00:36:53.237Z,1019.44
2022-07-31T00:37:24.153Z,1019.43
2022-07-31T00:38:24.773Z,1019.42
2022-07-31T00:38:27.766Z,1019.43
2022-07-31T00:38:57.023Z,1019.41
2022-07-31T00:39:28.124Z,1019.41
2022-07-31T00:39:58.605Z,1019.41
2022-07-31T00:40:29.240Z,1019.43
2022-07-31T00:41:00.151Z,1019.41
2022-07-31T00:41:31.146Z,1019.41
2022-07-31T00:42:02.054Z,1019.41
2022-07-31T00:42:33.141Z,1019.41
2022-07-31T00:43:03.621Z,1019.42
2022-07-31T00:43:34.612Z,1019.41
2022-07-31T00:44:05.493Z,1019.41
2022-07-31T00:44:37.457Z,1019.39
2022-07-31T00:45:07.214Z,1019.38
2022-07-31T00:45:37.928Z,1019.38
2022-07-31T00:46:08.347Z,1019.38
2022-07-31T00:46:40.336Z,1019.39
2022-07-31T00:47:09.949Z,1019.40
2022-07-31T00:47:41.142Z,1019.40
2022-07-31T00:48:11.589Z,1019.38
2022-07-31T00:48:42.185Z,1019.37
2022-07-31T00:49:13.157Z,1019.37
2022-07-31T00:49:43.604Z,1019.37
2022-07-31T00:50:14.513Z,1019.39
2022-07-31T00:50:45.614Z,1019.38
2022-07-31T00:51:16.130Z,1019.36
2022-07-31T00:51:47.037Z,1019.36
2022-07-31T00:52:17.955Z,1019.37
2022-07-31T00:52:48.946Z,1019.37
2022-07-31T00:53:19.847Z,1019.37
2022-07-31T00:53:50.952Z,1019.37
2022-07-31T00:54:22.951Z,1019.38
2022-07-31T00:54:52.248Z,1019.38
2022-07-31T00:55:23.222Z,1019.40
2022-07-31T00:55:54.211Z,1019.40
2022-07-31T00:56:25.134Z,1019.39
2022-07-31T00:56:56.307Z,1019.39
2022-07-31T00:57:26.792Z,1019.40
2022-07-31T00:57:57.781Z,1019.40
2022-07-31T00:58:28.753Z,1019.39
2022-07-31T00:58:59.717Z,1019.39
2022-07-31T00:59:30.620Z,1019.39
2022-07-31T01:00:01.718Z,1019.39
2022-07-31T01:00:32.201Z,1019.40
2022-07-31T01:01:03.160Z,1019.41
2022-07-31T01:01:33.662Z,1019.39
2022-07-31T01:02:04.431Z,1019.40
2022-07-31T01:02:35.433Z,1019.41
2022-07-31T01:03:06.533Z,1019.40
2022-07-31T01:03:37.003Z,1019.39
2022-07-31T01:04:07.965Z,1019.39
2022-07-31T01:04:41.657Z,1019.40
2022-07-31T01:05:09.334Z,1019.40
2022-07-31T01:05:40.503Z,1019.40
2022-07-31T01:06:10.973Z,1019.41
2022-07-31T01:06:42.791Z,1019.42
2022-07-31T01:07:12.512Z,1019.42
2022-07-31T01:07:43.435Z,1019.42
2022-07-31T01:08:14.344Z,1019.43
2022-07-31T01:08:45.446Z,1019.43
2022-07-31T01:09:15.952Z,1019.41
2022-07-31T01:09:46.860Z,1019.40
2022-07-31T01:10:17.849Z,1019.38
2022-07-31T01:10:48.832Z,1019.37
2022-07-31T01:11:19.801Z,1019.36
2022-07-31T01:11:51.020Z,1019.36
2022-07-31T01:12:21.503Z,1019.36
2022-07-31T01:12:54.216Z,1019.34
2022-07-31T01:13:23.098Z,1019.33
2022-07-31T01:13:54.075Z,1019.33
2022-07-31T01:14:25.034Z,1019.32
2022-07-31T01:14:56.215Z,1019.33
2022-07-31T01:15:26.710Z,1019.34
2022-07-31T01:15:57.671Z,1019.34
2022-07-31T01:16:28.555Z,1019.35
2022-07-31T01:16:59.601Z,1019.33
2022-07-31T01:17:30.349Z,1019.33
2022-07-31T01:18:01.438Z,1019.32
2022-07-31T01:18:31.924Z,1019.33
2022-07-31T01:19:02.836Z,1019.32
2022-07-31T01:19:42.248Z,1019.31
2022-07-31T01:20:05.762Z,1019.30
2022-07-31T01:20:35.428Z,1019.30
2022-07-31T01:21:05.925Z,1019.31
2022-07-31T01:21:36.836Z,1019.33
2022-07-31T01:22:07.745Z,1019.31
2022-07-31T01:22:39.611Z,1019.29
2022-07-31T01:23:09.525Z,1019.30
2022-07-31T01:23:40.674Z,1019.31
2022-07-31T01:24:12.148Z,1019.31
2022-07-31T01:24:41.675Z,1019.30
2022-07-31T01:25:12.068Z,1019.31
2022-07-31T01:25:42.985Z,1019.33
2022-07-31T01:26:14.143Z,1019.35
2022-07-31T01:26:45.586Z,1019.35
2022-07-31T01:27:15.073Z,1019.37
2022-07-31T01:27:49.349Z,1019.37
2022-07-31T01:28:16.957Z,1019.39
2022-07-31T01:28:48.054Z,1019.38
2022-07-31T01:29:18.539Z,1019.37
2022-07-31T01:29:49.509Z,1019.37
2022-07-31T01:30:20.421Z,1019.38
2022-07-31T01:31:04.998Z,1019.35
2022-07-31T01:31:27.213Z,1019.35
2022-07-31T01:31:53.023Z,1019.35
2022-07-31T01:32:27.625Z,1019.36
2022-07-31T01:32:54.474Z,1019.35
2022-07-31T01:33:25.465Z,1019.38
2022-07-31T01:33:56.419Z,1019.37
2022-07-31T01:34:27.523Z,1019.37
2022-07-31T01:34:58.001Z,1019.36
2022-07-31T01:35:28.908Z,1019.36
2022-07-31T01:35:59.894Z,1019.36
2022-07-31T01:36:30.875Z,1019.36
2022-07-31T01:37:02.112Z,1019.36
2022-07-31T01:37:32.944Z,1019.34
2022-07-31T01:38:03.410Z,1019.35
2022-07-31T01:38:34.403Z,1019.35
2022-07-31T01:39:05.315Z,1019.35
2022-07-31T01:39:36.233Z,1019.34
2022-07-31T01:40:07.209Z,1019.36
2022-07-31T01:40:38.300Z,1019.35
2022-07-31T01:41:08.797Z,1019.35
2022-07-31T01:41:39.708Z,1019.36
2022-07-31T01:42:10.619Z,1019.35
2022-07-31T01:42:41.525Z,1019.35
2022-07-31T01:43:12.454Z,1019.34
2022-07-31T01:43:43.626Z,1019.34
2022-07-31T01:44:14.575Z,1019.33
2022-07-31T01:44:44.613Z,1019.33
2022-07-31T01:45:15.595Z,1019.32
2022-07-31T01:45:46.490Z,1019.31
2022-07-31T01:46:17.393Z,1019.31
2022-07-31T01:46:48.571Z,1019.32
2022-07-31T01:47:19.072Z,1019.32
2022-07-31T01:47:49.979Z,1019.30
2022-07-31T01:48:20.961Z,1019.31
2022-07-31T01:48:51.919Z,1019.31
2022-07-31T01:49:22.965Z,1019.30
2022-07-31T01:49:53.774Z,1019.30
2022-07-31T01:50:42.448Z,1019.30
2022-07-31T01:50:56.209Z,1019.28
2022-07-31T01:51:25.620Z,1019.29
2022-07-31T01:51:56.530Z,1019.26
2022-07-31T01:52:28.523Z,1019.26
2022-07-31T01:52:57.979Z,1019.25
2022-07-31T01:53:28.952Z,1019.26
2022-07-31T01:53:59.929Z,1019.26
2022-07-31T01:54:30.802Z,1019.24
2022-07-31T01:55:01.893Z,1019.25
2022-07-31T01:56:02.510Z,1019.24
2022-07-31T01:56:04.533Z,1019.24
2022-07-31T01:56:34.181Z,1019.25
2022-07-31T01:57:05.097Z,1019.25
2022-07-31T01:57:36.007Z,1019.25
2022-07-31T01:58:07.106Z,1019.26
2022-07-31T01:58:37.566Z,1019.25
2022-07-31T01:59:17.076Z,1019.26
2022-07-31T01:59:44.516Z,1019.27
2022-07-31T02:00:23.536Z,1019.26
2022-07-31T02:00:42.206Z,1019.29
2022-07-31T02:01:11.946Z,1019.27
2022-07-31T02:01:42.511Z,1019.27
2022-07-31T02:02:13.295Z,1019.27
2022-07-31T02:02:44.213Z,1019.29
2022-07-31T02:03:15.390Z,1019.27
2022-07-31T02:03:45.842Z,1019.27
2022-07-31T02:04:17.796Z,1019.28
2022-07-31T02:04:47.283Z,1019.31
2022-07-31T02:05:18.000Z,1019.31
2022-07-31T02:05:49.179Z,1019.31
2022-07-31T02:06:19.650Z,1019.31
2022-07-31T02:06:50.632Z,1019.33
2022-07-31T02:07:21.623Z,1019.34
2022-07-31T02:07:52.597Z,1019.32
2022-07-31T02:08:23.502Z,1019.33
2022-07-31T02:08:54.465Z,1019.32
2022-07-31T02:09:24.946Z,1019.32
2022-07-31T02:09:59.097Z,1019.31
2022-07-31T02:10:26.555Z,1019.33
2022-07-31T02:10:57.524Z,1019.33
2022-07-31T02:11:28.428Z,1019.34
2022-07-31T02:11:59.511Z,1019.31
2022-07-31T02:12:33.667Z,1019.32
2022-07-31T02:13:00.637Z,1019.31
2022-07-31T02:13:31.547Z,1019.30
2022-07-31T02:14:02.534Z,1019.29
2022-07-31T02:14:33.448Z,1019.29
2022-07-31T02:15:04.612Z,1019.30
2022-07-31T02:15:35.091Z,1019.30
2022-07-31T02:16:06.059Z,1019.31
2022-07-31T02:16:36.950Z,1019.31
2022-07-31T02:17:07.909Z,1019.32
2022-07-31T02:17:38.817Z,1019.28
2022-07-31T02:18:09.996Z,1019.30
2022-07-31T02:18:40.480Z,1019.29
2022-07-31T02:19:11.390Z,1019.29
2022-07-31T02:19:59.948Z,1019.30
2022-07-31T02:20:14.271Z,1019.29
2022-07-31T02:20:43.933Z,1019.28
2022-07-31T02:21:14.404Z,1019.28
2022-07-31T02:21:45.310Z,1019.29
2022-07-31T02:22:16.289Z,1019.27
2022-07-31T02:22:47.204Z,1019.28
2022-07-31T02:23:18.115Z,1019.29
2022-07-31T02:23:49.267Z,1019.30
2022-07-31T02:24:19.787Z,1019.30
2022-07-31T02:24:50.227Z,1019.30
2022-07-31T02:25:21.218Z,1019.31
2022-07-31T02:25:52.131Z,1019.31
2022-07-31T02:26:23.105Z,1019.31
2022-07-31T02:26:54.198Z,1019.31
2022-07-31T02:27:53.698Z,1019.31
2022-07-31T02:27:58.763Z,1019.29
2022-07-31T02:28:26.304Z,1019.29
2022-07-31T02:28:57.291Z,1019.29
2022-07-31T02:29:28.270Z,1019.29
2022-07-31T02:29:59.438Z,1019.30
2022-07-31T02:30:38.810Z,1019.29
2022-07-31T02:31:00.844Z,1019.31
2022-07-31T02:31:31.800Z,1019.31
2022-07-31T02:32:03.691Z,1019.30
2022-07-31T02:32:33.490Z,1019.31
2022-07-31T02:33:03.963Z,1019.31
2022-07-31T02:33:34.944Z,1019.31
2022-07-31T02:34:05.812Z,1019.31
2022-07-31T02:34:36.807Z,1019.31
2022-07-31T02:35:07.710Z,1019.30
2022-07-31T02:35:38.824Z,1019.30
2022-07-31T02:36:10.270Z,1019.31
2022-07-31T02:36:39.745Z,1019.32
2022-07-31T02:37:10.667Z,1019.31
2022-07-31T02:37:41.572Z,1019.31
2022-07-31T02:38:18.069Z,1019.32
2022-07-31T02:38:44.214Z,1019.33
2022-07-31T02:39:13.624Z,1019.32
2022-07-31T02:39:44.608Z,1019.31
2022-07-31T02:40:15.588Z,1019.31
2022-07-31T02:40:46.750Z,1019.30
2022-07-31T02:41:17.229Z,1019.29
2022-07-31T02:41:48.193Z,1019.29
2022-07-31T02:42:19.091Z,1019.29
2022-07-31T02:42:49.980Z,1019.29
2022-07-31T02:43:20.899Z,1019.30
2022-07-31T02:43:51.984Z,1019.29
2022-07-31T02:44:26.926Z,1019.28
2022-07-31T02:44:54.425Z,1019.27
2022-07-31T02:45:23.883Z,1019.28
2022-07-31T02:45:54.789Z,1019.28
2022-07-31T02:46:25.955Z,1019.28
2022-07-31T02:46:56.462Z,1019.28
2022-07-31T02:47:27.363Z,1019.28
2022-07-31T02:47:58.262Z,1019.28
2022-07-31T02:48:29.220Z,1019.29
2022-07-31T02:49:00.278Z,1019.30
2022-07-31T02:49:31.073Z,1019.30
2022-07-31T02:50:01.397Z,1019.31
2022-07-31T02:50:32.374Z,1019.30
2022-07-31T02:51:03.375Z,1019.30
2022-07-31T02:51:38.782Z,1019.29
2022-07-31T02:52:06.821Z,1019.29
2022-07-31T02:52:36.012Z,1019.29
2022-07-31T02:53:06.917Z,1019.28
2022-07-31T02:53:37.859Z,1019.28
2022-07-31T02:54:08.775Z,1019.27
2022-07-31T02:54:39.688Z,1019.27
2022-07-31T02:55:10.836Z,1019.27
2022-07-31T02:55:41.422Z,1019.28
2022-07-31T02:56:12.322Z,1019.28
2022-07-31T02:56:43.233Z,1019.29
2022-07-31T02:57:14.199Z,1019.28
2022-07-31T02:57:45.110Z,1019.29
2022-07-31T02:58:16.239Z,1019.30
2022-07-31T02:58:46.729Z,1019.29
2022-07-31T02:59:17.636Z,1019.29
2022-07-31T02:59:48.622Z,1019.29
2022-07-31T03:00:19.580Z,1019.29
2022-07-31T03:00:50.623Z,1019.29
2022-07-31T03:01:21.421Z,1019.30
2022-07-31T03:01:51.936Z,1019.30
2022-07-31T03:02:22.908Z,1019.31
2022-07-31T03:02:54.860Z,1019.30
2022-07-31T03:03:24.245Z,1019.29
2022-07-31T03:03:55.389Z,1019.29
2022-07-31T03:04:25.880Z,1019.29
2022-07-31T03:04:56.793Z,1019.30
2022-07-31T03:05:27.400Z,1019.29
2022-07-31T03:05:58.364Z,1019.27
2022-07-31T03:06:29.280Z,1019.29
2022-07-31T03:07:00.382Z,1019.29
2022-07-31T03:07:30.857Z,1019.29
2022-07-31T03:08:01.771Z,1019.27
2022-07-31T03:08:32.676Z,1019.27
2022-07-31T03:09:03.596Z,1019.28
2022-07-31T03:09:34.514Z,1019.29
2022-07-31T03:10:05.601Z,1019.29
2022-07-31T03:10:36.094Z,1019.31
2022-07-31T03:11:07.016Z,1019.31
2022-07-31T03:11:37.925Z,1019.30
2022-07-31T03:12:08.858Z,1019.29
2022-07-31T03:12:39.829Z,1019.32
2022-07-31T03:13:10.942Z,1019.31
2022-07-31T03:13:41.427Z,1019.32
2022-07-31T03:14:12.331Z,1019.32
2022-07-31T03:14:43.231Z,1019.32
2022-07-31T03:15:14.224Z,1019.32
2022-07-31T03:15:50.981Z,1019.32
2022-07-31T03:16:17.089Z,1019.31
2022-07-31T03:16:46.463Z,1019.31
2022-07-31T03:17:17.444Z,1019.31
2022-07-31T03:17:48.565Z,1019.31
2022-07-31T03:18:18.991Z,1019.31
2022-07-31T03:18:50.171Z,1019.29
2022-07-31T03:19:20.659Z,1019.29
2022-07-31T03:19:51.400Z,1019.30
2022-07-31T03:20:22.339Z,1019.30
2022-07-31T03:20:53.283Z,1019.31
2022-07-31T03:21:24.200Z,1019.29
2022-07-31T03:21:55.289Z,1019.30
2022-07-31T03:22:25.761Z,1019.30
2022-07-31T03:22:56.715Z,1019.32
2022-07-31T03:23:27.614Z,1019.32
2022-07-31T03:23:58.602Z,1019.31
2022-07-31T03:24:29.083Z,1019.30
2022-07-31T03:25:00.172Z,1019.29
2022-07-31T03:25:30.629Z,1019.28
2022-07-31T03:26:01.621Z,1019.26
2022-07-31T03:26:32.600Z,1019.27
2022-07-31T03:27:03.274Z,1019.27
2022-07-31T03:27:34.244Z,1019.30
2022-07-31T03:28:05.415Z,1019.30
2022-07-31T03:28:35.814Z,1019.29
2022-07-31T03:29:39.822Z,1019.30
2022-07-31T03:29:41.850Z,1019.30
2022-07-31T03:30:09.716Z,1019.31
2022-07-31T03:30:39.095Z,1019.32
2022-07-31T03:31:10.207Z,1019.34
2022-07-31T03:31:40.686Z,1019.35
2022-07-31T03:32:11.601Z,1019.36
2022-07-31T03:32:42.510Z,1019.36
2022-07-31T03:33:13.468Z,1019.35
2022-07-31T03:33:44.376Z,1019.35
2022-07-31T03:34:15.544Z,1019.35
2022-07-31T03:34:46.018Z,1019.34
2022-07-31T03:35:16.932Z,1019.34
2022-07-31T03:35:47.841Z,1019.36
2022-07-31T03:36:18.810Z,1019.34
2022-07-31T03:36:49.801Z,1019.34
2022-07-31T03:37:20.901Z,1019.33
2022-07-31T03:37:51.369Z,1019.32
2022-07-31T03:38:39.315Z,1019.33
2022-07-31T03:38:53.247Z,1019.34
2022-07-31T03:39:24.224Z,1019.33
2022-07-31T03:39:55.323Z,1019.32
2022-07-31T03:40:25.792Z,1019.32
2022-07-31T03:40:56.698Z,1019.31
2022-07-31T03:41:27.661Z,1019.30
2022-07-31T03:41:58.577Z,1019.30
2022-07-31T03:42:29.496Z,1019.32
2022-07-31T03:43:00.676Z,1019.31
2022-07-31T03:43:44.182Z,1019.31
2022-07-31T03:44:02.072Z,1019.32
2022-07-31T03:44:33.011Z,1019.31
2022-07-31T03:45:03.995Z,1019.29
2022-07-31T03:45:35.117Z,1019.30
2022-07-31T03:46:05.599Z,1019.29
2022-07-31T03:46:36.506Z,1019.27
2022-07-31T03:47:07.496Z,1019.26
2022-07-31T03:47:38.481Z,1019.25
2022-07-31T03:48:09.459Z,1019.26
2022-07-31T03:48:40.634Z,1019.25
2022-07-31T03:49:11.193Z,1019.25
2022-07-31T03:49:41.808Z,1019.23
2022-07-31T03:50:12.769Z,1019.24
2022-07-31T03:50:43.676Z,1019.24
2022-07-31T03:51:14.610Z,1019.24
2022-07-31T03:51:45.711Z,1019.24
2022-07-31T03:52:16.206Z,1019.24
2022-07-31T03:52:47.185Z,1019.25
2022-07-31T03:53:18.135Z,1019.23
2022-07-31T03:53:49.109Z,1019.24
2022-07-31T03:54:20.025Z,1019.24
2022-07-31T03:54:51.070Z,1019.24
2022-07-31T03:55:21.543Z,1019.22
2022-07-31T03:55:52.459Z,1019.21
2022-07-31T03:56:23.372Z,1019.22
2022-07-31T03:56:54.282Z,1019.22
2022-07-31T03:57:27.603Z,1019.21
2022-07-31T03:57:57.153Z,1019.21
2022-07-31T03:58:26.619Z,1019.21
2022-07-31T03:58:57.577Z,1019.22
2022-07-31T03:59:28.418Z,1019.19
2022-07-31T03:59:59.216Z,1019.19
2022-07-31T04:00:29.992Z,1019.19
2022-07-31T04:01:00.594Z,1019.18
2022-07-31T04:01:57.402Z,1019.19
2022-07-31T04:02:06.015Z,1019.19
2022-07-31T04:02:32.974Z,1019.19
2022-07-31T04:03:03.418Z,1019.20
2022-07-31T04:03:34.586Z,1019.22
2022-07-31T04:04:05.060Z,1019.22
2022-07-31T04:04:35.970Z,1019.22
2022-07-31T04:05:10.085Z,1019.21
2022-07-31T04:05:37.620Z,1019.22
2022-07-31T04:06:08.573Z,1019.20
2022-07-31T04:06:39.778Z,1019.23
2022-07-31T04:07:10.274Z,1019.24
2022-07-31T04:07:41.174Z,1019.24
2022-07-31T04:08:12.142Z,1019.24
2022-07-31T04:08:43.037Z,1019.24
2022-07-31T04:09:18.921Z,1019.26
2022-07-31T04:09:45.893Z,1019.24
2022-07-31T04:10:15.808Z,1019.23
2022-07-31T04:10:46.727Z,1019.24
2022-07-31T04:11:17.583Z,1019.25
2022-07-31T04:11:48.514Z,1019.25
2022-07-31T04:12:19.624Z,1019.24
2022-07-31T04:12:50.056Z,1019.24
2022-07-31T04:13:21.019Z,1019.25
2022-07-31T04:13:51.908Z,1019.24
2022-07-31T04:14:22.815Z,1019.24
2022-07-31T04:14:53.674Z,1019.22
2022-07-31T04:15:24.702Z,1019.24
2022-07-31T04:15:55.136Z,1019.23
2022-07-31T04:16:26.052Z,1019.24
2022-07-31T04:16:56.995Z,1019.22
2022-07-31T04:17:27.953Z,1019.23
2022-07-31T04:17:58.783Z,1019.24
2022-07-31T04:18:29.944Z,1019.24
2022-07-31T04:19:00.425Z,1019.25
2022-07-31T04:19:31.398Z,1019.27
2022-07-31T04:20:03.690Z,1019.26
2022-07-31T04:20:32.884Z,1019.26
2022-07-31T04:21:03.865Z,1019.26
2022-07-31T04:21:35.000Z,1019.28
2022-07-31T04:22:05.812Z,1019.28
2022-07-31T04:22:35.905Z,1019.28
2022-07-31T04:23:07.103Z,1019.29
2022-07-31T04:23:37.329Z,1019.30
2022-07-31T04:24:08.311Z,1019.32
2022-07-31T04:24:39.477Z,1019.32
2022-07-31T04:25:09.878Z,1019.31
2022-07-31T04:25:40.859Z,1019.32
2022-07-31T04:26:11.774Z,1019.31
2022-07-31T04:26:43.717Z,1019.32
2022-07-31T04:27:13.817Z,1019.34
2022-07-31T04:27:48.033Z,1019.33
2022-07-31T04:28:15.029Z,1019.34
2022-07-31T04:28:45.928Z,1019.34
2022-07-31T04:29:16.910Z,1019.33
2022-07-31T04:29:47.935Z,1019.35
2022-07-31T04:30:18.541Z,1019.34
2022-07-31T04:30:48.971Z,1019.34
2022-07-31T04:31:19.884Z,1019.33
2022-07-31T04:31:50.861Z,1019.33
2022-07-31T04:32:21.778Z,1019.35
2022-07-31T04:32:52.681Z,1019.34
2022-07-31T04:33:23.787Z,1019.34
2022-07-31T04:33:56.814Z,1019.34
2022-07-31T04:34:24.789Z,1019.34
2022-07-31T04:34:55.698Z,1019.33
2022-07-31T04:35:26.675Z,1019.32
2022-07-31T04:35:57.595Z,1019.34
2022-07-31T04:36:29.693Z,1019.33
2022-07-31T04:36:59.431Z,1019.33
2022-07-31T04:37:30.404Z,1019.32
2022-07-31T04:38:01.379Z,1019.34
2022-07-31T04:38:32.288Z,1019.35
2022-07-31T04:39:03.215Z,1019.36
2022-07-31T04:39:34.271Z,1019.34
2022-07-31T04:40:04.682Z,1019.34
2022-07-31T04:40:35.530Z,1019.34
2022-07-31T04:41:06.388Z,1019.34
2022-07-31T04:41:37.233Z,1019.32
2022-07-31T04:42:11.246Z,1019.33
2022-07-31T04:42:38.807Z,1019.33
2022-07-31T04:43:09.221Z,1019.33
2022-07-31T04:43:40.084Z,1019.33
2022-07-31T04:44:11.011Z,1019.33
2022-07-31T04:44:41.875Z,1019.34
2022-07-31T04:45:12.737Z,1019.33
2022-07-31T04:45:43.840Z,1019.31
2022-07-31T04:46:17.224Z,1019.30
2022-07-31T04:46:44.987Z,1019.31
2022-07-31T04:47:15.844Z,1019.32
2022-07-31T04:47:46.771Z,1019.31
2022-07-31T04:48:17.680Z,1019.31
2022-07-31T04:48:49.285Z,1019.32
2022-07-31T04:49:19.282Z,1019.31
2022-07-31T04:49:49.696Z,1019.33
2022-07-31T04:50:20.618Z,1019.33
2022-07-31T04:50:51.481Z,1019.33
2022-07-31T04:51:22.305Z,1019.33
2022-07-31T04:51:53.380Z,1019.33
2022-07-31T04:52:23.803Z,1019.33
2022-07-31T04:52:54.576Z,1019.34
2022-07-31T04:53:25.432Z,1019.33
2022-07-31T04:53:56.360Z,1019.32
2022-07-31T04:54:27.219Z,1019.32
2022-07-31T04:54:58.279Z,1019.33
2022-07-31T04:55:28.695Z,1019.35
2022-07-31T04:55:59.555Z,1019.34
2022-07-31T04:56:30.482Z,1019.33
2022-07-31T04:57:01.338Z,1019.36
2022-07-31T04:57:32.235Z,1019.35
2022-07-31T04:58:03.273Z,1019.35
2022-07-31T04:58:33.669Z,1019.34
2022-07-31T04:59:04.530Z,1019.36
2022-07-31T04:59:57.694Z,1019.35
2022-07-31T05:00:07.285Z,1019.36
2022-07-31T05:00:37.397Z,1019.35
2022-07-31T05:01:07.878Z,1019.35
2022-07-31T05:01:38.612Z,1019.35
2022-07-31T05:02:09.221Z,1019.35
2022-07-31T05:02:39.886Z,1019.34
2022-07-31T05:03:10.790Z,1019.33
2022-07-31T05:03:41.826Z,1019.33
2022-07-31T05:04:12.221Z,1019.35
2022-07-31T05:04:43.147Z,1019.36
2022-07-31T05:05:14.071Z,1019.35
2022-07-31T05:05:45.014Z,1019.36
2022-07-31T05:06:15.866Z,1019.36
2022-07-31T05:06:46.949Z,1019.35
2022-07-31T05:07:17.386Z,1019.35
2022-07-31T05:07:48.233Z,1019.35
2022-07-31T05:08:19.132Z,1019.37
2022-07-31T05:08:49.986Z,1019.35
2022-07-31T05:09:23.559Z,1019.35
2022-07-31T05:09:51.712Z,1019.35
2022-07-31T05:10:22.144Z,1019.37
2022-07-31T05:10:53.061Z,1019.37
2022-07-31T05:11:23.924Z,1019.38
2022-07-31T05:11:54.866Z,1019.38
2022-07-31T05:12:25.782Z,1019.38
2022-07-31T05:12:56.909Z,1019.37
2022-07-31T05:13:27.339Z,1019.38
2022-07-31T05:13:58.287Z,1019.37
2022-07-31T05:14:29.190Z,1019.38
2022-07-31T05:15:00.122Z,1019.41
2022-07-31T05:15:30.982Z,1019.41
2022-07-31T05:16:02.101Z,1019.42
2022-07-31T05:16:32.523Z,1019.43
2022-07-31T05:17:03.383Z,1019.43
2022-07-31T05:17:34.295Z,1019.43
2022-07-31T05:18:05.149Z,1019.42
2022-07-31T05:18:36.061Z,1019.40
2022-07-31T05:19:13.838Z,1019.41
2022-07-31T05:19:38.513Z,1019.40
2022-07-31T05:20:08.449Z,1019.38
2022-07-31T05:20:39.311Z,1019.37
2022-07-31T05:21:10.169Z,1019.37
2022-07-31T05:21:46.043Z,1019.36
2022-07-31T05:22:12.686Z,1019.35
2022-07-31T05:22:42.295Z,1019.33
2022-07-31T05:23:13.217Z,1019.33
2022-07-31T05:23:44.078Z,1019.35
2022-07-31T05:24:15.205Z,1019.36
2022-07-31T05:24:45.741Z,1019.37
2022-07-31T05:25:16.664Z,1019.37
2022-07-31T05:25:47.602Z,1019.37
2022-07-31T05:26:18.511Z,1019.37
2022-07-31T05:26:49.351Z,1019.38
2022-07-31T05:27:20.501Z,1019.39
2022-07-31T05:27:50.935Z,1019.40
2022-07-31T05:28:28.260Z,1019.41
2022-07-31T05:28:57.966Z,1019.41
2022-07-31T05:29:23.348Z,1019.42
2022-07-31T05:29:54.475Z,1019.42
2022-07-31T05:30:30.613Z,1019.40
2022-07-31T05:30:56.820Z,1019.41
2022-07-31T05:31:26.741Z,1019.41
2022-07-31T05:32:00.104Z,1019.40
2022-07-31T05:32:28.469Z,1019.41
2022-07-31T05:32:59.355Z,1019.43
2022-07-31T05:33:30.205Z,1019.42
2022-07-31T05:34:01.129Z,1019.42
2022-07-31T05:34:31.983Z,1019.41
2022-07-31T05:35:03.099Z,1019.42
2022-07-31T05:35:33.517Z,1019.42
2022-07-31T05:36:04.389Z,1019.42
2022-07-31T05:36:35.313Z,1019.41
2022-07-31T05:37:07.200Z,1019.41
2022-07-31T05:37:37.033Z,1019.41
2022-07-31T05:38:11.780Z,1019.40
2022-07-31T05:38:38.525Z,1019.40
2022-07-31T05:39:09.457Z,1019.38
2022-07-31T05:39:40.383Z,1019.38
2022-07-31T05:40:11.286Z,1019.37
2022-07-31T05:40:42.209Z,1019.37
2022-07-31T05:41:13.269Z,1019.37
2022-07-31T05:41:43.701Z,1019.37
2022-07-31T05:42:14.624Z,1019.38
2022-07-31T05:42:45.546Z,1019.39
2022-07-31T05:43:16.480Z,1019.39
2022-07-31T05:43:47.408Z,1019.40
2022-07-31T05:44:18.493Z,1019.40
2022-07-31T05:44:48.931Z,1019.41
2022-07-31T05:45:19.811Z,1019.41
2022-07-31T05:45:50.745Z,1019.42
2022-07-31T05:46:21.671Z,1019.43
2022-07-31T05:48:55.765Z,1019.44
2022-07-31T05:49:26.928Z,1019.45
2022-07-31T05:49:57.522Z,1019.46
2022-07-31T05:50:28.582Z,1019.46
2022-07-31T05:51:02.379Z,1019.49
2022-07-31T05:51:30.926Z,1019.50
2022-07-31T05:52:01.137Z,1019.50
2022-07-31T05:52:31.381Z,1019.51
2022-07-31T05:53:02.450Z,1019.52
2022-07-31T05:53:32.886Z,1019.51
2022-07-31T05:54:03.826Z,1019.53
2022-07-31T05:54:34.691Z,1019.54
2022-07-31T05:55:05.633Z,1019.55
2022-07-31T05:55:36.559Z,1019.55
2022-07-31T05:56:07.695Z,1019.55
2022-07-31T05:56:38.126Z,1019.56
2022-07-31T05:57:09.034Z,1019.56
2022-07-31T05:57:39.899Z,1019.59
2022-07-31T05:58:16.311Z,1019.60
2022-07-31T05:58:41.872Z,1019.60
2022-07-31T05:59:12.577Z,1019.58
2022-07-31T05:59:43.434Z,1019.59
2022-07-31T06:00:14.371Z,1019.59
2022-07-31T06:00:45.072Z,1019.56
2022-07-31T06:01:15.942Z,1019.55
2022-07-31T06:01:47.248Z,1019.55
2022-07-31T06:02:17.851Z,1019.57
2022-07-31T06:02:48.776Z,1019.56
2022-07-31T06:03:19.627Z,1019.55
2022-07-31T06:03:51.914Z,1019.54
2022-07-31T06:04:21.230Z,1019.55
2022-07-31T06:04:52.289Z,1019.54
2022-07-31T06:05:22.711Z,1019.53
2022-07-31T06:05:53.569Z,1019.52
2022-07-31T06:06:24.497Z,1019.51
2022-07-31T06:06:55.361Z,1019.49
2022-07-31T06:07:26.255Z,1019.50
2022-07-31T06:07:57.396Z,1019.48
2022-07-31T06:08:27.836Z,1019.49
2022-07-31T06:09:04.075Z,1019.50
2022-07-31T06:09:30.680Z,1019.49
2022-07-31T06:10:00.612Z,1019.49
2022-07-31T06:10:31.669Z,1019.50
2022-07-31T06:11:02.138Z,1019.50
2022-07-31T06:11:33.071Z,1019.52
2022-07-31T06:12:04.295Z,1019.52
2022-07-31T06:12:34.636Z,1019.52
2022-07-31T06:13:05.079Z,1019.52
2022-07-31T06:13:36.230Z,1019.52
2022-07-31T06:14:06.661Z,1019.52
2022-07-31T06:14:37.606Z,1019.51
2022-07-31T06:15:08.535Z,1019.53